createdAt,value
2019-05-19T00:00:48.304Z,86.05
2019-05-19T00:03:20.852Z,60.12
2019-05-19T00:05:53.077Z,91.85
2019-05-19T00:10:57.350Z,55.43
2019-05-19T00:13:30.721Z,53.35
2019-05-19T00:16:03.591Z,55.65
2019-05-19T00:18:36.452Z,51.37
2019-05-19T00:21:08.824Z,58.25
2019-05-19T00:23:41.811Z,56.20
2019-05-19T00:26:14.150Z,56.05
2019-05-19T00:31:17.952Z,54.58
2019-05-19T00:33:50.738Z,59.27
2019-05-19T00:36:23.064Z,58.45
2019-05-19T00:38:55.536Z,52.13
2019-05-19T00:41:27.889Z,58.80
2019-05-19T00:46:31.921Z,53.87
2019-05-19T00:49:04.618Z,64.67
2019-05-19T00:51:37.138Z,64.60
2019-05-19T00:54:10.077Z,56.85
2019-05-19T00:56:42.774Z,73.42
2019-05-19T00:59:15.991Z,67.00
2019-05-19T01:01:49.259Z,64.62
2019-05-19T01:04:22.481Z,61.18
2019-05-19T01:06:54.930Z,59.38
2019-05-19T01:09:27.842Z,59.25
2019-05-19T01:12:01.156Z,64.42
2019-05-19T01:14:34.463Z,63.02
2019-05-19T01:17:06.879Z,66.02
2019-05-19T01:22:12.110Z,63.33
2019-05-19T01:24:45.227Z,55.55
2019-05-19T01:27:17.831Z,61.02
2019-05-19T01:29:50.277Z,57.10
2019-05-19T01:32:22.675Z,58.55
2019-05-19T01:37:27.498Z,60.80
2019-05-19T01:42:31.436Z,57.48
2019-05-19T01:45:04.210Z,66.30
2019-05-19T01:47:36.891Z,59.83
2019-05-19T01:50:18.766Z,63.95
2019-05-19T01:52:44.906Z,60.12
2019-05-19T01:55:18.054Z,51.00
2019-05-19T01:57:50.570Z,50.38
2019-05-19T02:00:24.428Z,53.92
2019-05-19T02:02:57.364Z,50.28
2019-05-19T02:05:30.358Z,51.95
2019-05-19T02:08:03.259Z,51.45
2019-05-19T02:10:36.640Z,44.58
2019-05-19T02:13:09.415Z,40.92
2019-05-19T02:15:43.026Z,52.62
2019-05-19T02:18:15.588Z,51.02
2019-05-19T02:23:19.959Z,48.60
2019-05-19T02:25:53.087Z,50.17
2019-05-19T02:28:25.929Z,48.17
2019-05-19T02:31:00.709Z,52.33
2019-05-19T02:33:35.681Z,56.28
2019-05-19T02:36:10.549Z,52.33
2019-05-19T02:38:42.804Z,48.70
2019-05-19T02:41:17.638Z,52.43
2019-05-19T02:43:51.746Z,47.70
2019-05-19T02:46:26.566Z,49.67
2019-05-19T02:48:59.495Z,50.40
2019-05-19T02:51:35.762Z,55.75
2019-05-19T02:54:09.626Z,56.50
2019-05-19T02:56:42.369Z,57.40
2019-05-19T03:02:07.249Z,59.70
2019-05-19T03:04:39.632Z,53.70
2019-05-19T03:07:12.701Z,54.40
2019-05-19T03:09:45.968Z,48.55
2019-05-19T03:12:23.224Z,42.43
2019-05-19T03:14:55.783Z,44.50
2019-05-19T03:17:28.158Z,45.17
2019-05-19T03:20:00.969Z,43.40
2019-05-19T03:22:35.171Z,43.05
2019-05-19T03:25:09.391Z,49.95
2019-05-19T03:27:41.859Z,49.30
2019-05-19T03:30:28.282Z,48.35
2019-05-19T03:33:14.496Z,47.73
2019-05-19T03:35:50.117Z,69.17
2019-05-19T03:38:24.023Z,59.75
2019-05-19T03:40:57.084Z,50.78
2019-05-19T03:43:29.622Z,43.00
2019-05-19T03:46:01.917Z,42.35
2019-05-19T03:51:06.297Z,51.20
2019-05-19T03:53:39.085Z,43.02
2019-05-19T03:56:11.620Z,39.18
2019-05-19T04:01:15.754Z,42.78
2019-05-19T04:03:49.250Z,44.77
2019-05-19T04:06:22.368Z,45.75
2019-05-19T04:08:55.653Z,52.93
2019-05-19T04:11:28.361Z,45.98
2019-05-19T04:14:05.524Z,46.40
2019-05-19T04:16:37.460Z,42.20
2019-05-19T04:19:09.841Z,43.58
2019-05-19T04:21:48.787Z,42.90
2019-05-19T04:24:16.591Z,44.27
2019-05-19T04:26:48.906Z,40.00
2019-05-19T04:29:21.893Z,45.43
2019-05-19T04:31:54.629Z,44.63
2019-05-19T04:34:28.768Z,39.03
2019-05-19T04:37:01.089Z,39.95
2019-05-19T04:39:33.790Z,38.60
2019-05-19T04:44:38.623Z,42.62
2019-05-19T04:49:46.271Z,38.08
2019-05-19T04:52:18.678Z,35.90
2019-05-19T04:54:51.404Z,42.50
2019-05-19T04:57:24.793Z,37.73
2019-05-19T04:59:57.566Z,38.65
2019-05-19T05:02:29.931Z,36.75
2019-05-19T05:07:34.141Z,44.53
2019-05-19T05:10:08.232Z,42.08
2019-05-19T05:12:40.633Z,36.42
2019-05-19T05:15:13.842Z,36.73
2019-05-19T05:17:46.615Z,40.23
2019-05-19T05:20:19.997Z,51.40
2019-05-19T05:22:52.476Z,42.33
2019-05-19T05:25:25.086Z,43.85
2019-05-19T05:27:57.973Z,35.98
2019-05-19T05:30:30.673Z,38.67
2019-05-19T05:33:03.648Z,37.80
2019-05-19T05:35:36.676Z,36.20
2019-05-19T05:38:09.066Z,39.55
2019-05-19T05:40:42.208Z,38.38
2019-05-19T05:43:15.956Z,38.90
2019-05-19T05:45:49.088Z,31.75
2019-05-19T05:48:21.686Z,39.88
2019-05-19T05:50:54.584Z,37.08
2019-05-19T05:53:31.494Z,38.42
2019-05-19T05:56:04.311Z,45.48
2019-05-19T05:58:36.521Z,36.68
2019-05-19T06:01:16.938Z,33.75
2019-05-19T06:03:49.684Z,36.35
2019-05-19T06:06:22.000Z,37.50
2019-05-19T06:11:28.920Z,31.75
2019-05-19T06:14:01.586Z,33.60
2019-05-19T06:19:06.615Z,38.27
2019-05-19T06:24:10.885Z,39.90
2019-05-19T06:26:43.120Z,32.10
2019-05-19T06:32:16.120Z,16.90
2019-05-19T06:34:48.911Z,37.60
2019-05-19T06:41:09.122Z,35.25
2019-05-19T06:46:38.870Z,34.80
2019-05-19T06:49:11.177Z,32.50
2019-05-19T06:51:43.852Z,31.37
2019-05-19T06:54:16.436Z,29.40
2019-05-19T06:56:48.981Z,28.73
2019-05-19T06:59:21.465Z,35.78
2019-05-19T07:01:53.865Z,35.52
2019-05-19T07:04:26.674Z,32.55
2019-05-19T07:07:00.104Z,32.17
2019-05-19T07:09:32.753Z,33.30
2019-05-19T07:12:05.282Z,32.10
2019-05-19T07:14:38.024Z,44.95
2019-05-19T07:17:10.921Z,29.23
2019-05-19T07:19:44.477Z,35.23
2019-05-19T07:22:17.639Z,27.37
2019-05-19T07:24:50.293Z,32.83
2019-05-19T07:27:23.547Z,30.08
2019-05-19T07:29:55.948Z,20.40
2019-05-19T07:32:28.609Z,30.55
2019-05-19T07:35:00.957Z,36.93
2019-05-19T07:37:45.292Z,28.87
2019-05-19T07:40:18.209Z,32.75
2019-05-19T07:42:50.563Z,30.48
2019-05-19T07:45:24.159Z,13.95
2019-05-19T07:47:56.541Z,14.10
2019-05-19T07:50:29.637Z,29.72
2019-05-19T07:53:01.904Z,35.30
2019-05-19T07:55:35.585Z,26.57
2019-05-19T07:58:07.920Z,23.15
2019-05-19T08:00:40.359Z,27.22
2019-05-19T08:03:13.352Z,31.75
2019-05-19T08:05:46.069Z,38.00
2019-05-19T08:08:18.386Z,31.77
2019-05-19T08:10:50.929Z,23.70
2019-05-19T08:15:54.487Z,22.20
2019-05-19T08:18:27.601Z,28.38
2019-05-19T08:20:59.933Z,31.80
2019-05-19T08:23:32.309Z,27.30
2019-05-19T08:26:05.079Z,28.73
2019-05-19T08:28:37.386Z,35.63
2019-05-19T08:31:10.258Z,29.77
2019-05-19T08:33:42.730Z,25.77
2019-05-19T08:38:48.086Z,36.17
2019-05-19T08:41:20.767Z,28.67
2019-05-19T08:43:53.553Z,30.92
2019-05-19T08:46:26.473Z,28.73
2019-05-19T08:48:59.559Z,37.63
2019-05-19T08:51:39.050Z,28.62
2019-05-19T08:54:14.922Z,28.30
2019-05-19T08:56:46.836Z,32.08
2019-05-19T08:59:19.084Z,28.75
2019-05-19T09:01:51.782Z,30.57
2019-05-19T09:04:25.265Z,34.27
2019-05-19T09:06:58.001Z,28.50
2019-05-19T09:09:33.042Z,29.07
2019-05-19T09:12:07.023Z,36.80
2019-05-19T09:14:42.005Z,33.35
2019-05-19T09:17:13.934Z,28.25
2019-05-19T09:19:49.387Z,33.85
2019-05-19T09:22:21.751Z,30.32
2019-05-19T09:24:58.836Z,27.85
2019-05-19T09:27:32.940Z,30.05
2019-05-19T09:30:08.087Z,32.63
2019-05-19T09:32:40.959Z,23.62
2019-05-19T09:35:13.910Z,29.02
2019-05-19T09:37:46.364Z,32.35
2019-05-19T09:40:20.206Z,33.18
2019-05-19T09:45:26.007Z,42.78
2019-05-19T09:50:30.183Z,51.80
2019-05-19T09:53:05.171Z,46.40
2019-05-19T09:55:38.219Z,41.60
2019-05-19T09:58:11.186Z,38.45
2019-05-19T10:00:44.010Z,44.45
2019-05-19T10:03:19.651Z,40.80
2019-05-19T10:05:52.173Z,36.70
2019-05-19T10:08:28.462Z,48.60
2019-05-19T10:11:26.141Z,45.40
2019-05-19T10:14:01.406Z,41.60
2019-05-19T10:16:34.551Z,35.10
2019-05-19T10:19:07.637Z,38.67
2019-05-19T10:21:43.036Z,42.55
2019-05-19T10:24:18.600Z,46.98
2019-05-19T10:26:51.462Z,47.48
2019-05-19T10:29:25.014Z,42.60
2019-05-19T10:32:01.743Z,41.42
2019-05-19T10:34:36.359Z,39.40
2019-05-19T10:37:12.656Z,44.67
2019-05-19T10:39:47.042Z,41.68
2019-05-19T10:42:23.277Z,38.70
2019-05-19T10:44:58.577Z,33.35
2019-05-19T10:47:34.158Z,30.82
2019-05-19T10:50:07.980Z,42.98
2019-05-19T10:52:40.564Z,42.25
2019-05-19T10:55:13.740Z,36.55
2019-05-19T10:57:46.106Z,38.92
2019-05-19T11:00:18.731Z,37.95
2019-05-19T11:05:22.608Z,39.18
2019-05-19T11:07:56.510Z,53.78
2019-05-19T11:10:29.821Z,45.28
2019-05-19T11:13:02.214Z,40.38
2019-05-19T11:15:34.962Z,44.50
2019-05-19T11:18:07.188Z,37.85
2019-05-19T11:20:41.045Z,47.40
2019-05-19T11:25:51.347Z,40.73
2019-05-19T11:28:18.767Z,46.85
2019-05-19T11:33:22.667Z,50.70
2019-05-19T11:35:55.534Z,47.38
2019-05-19T11:38:28.538Z,51.10
2019-05-19T11:41:04.497Z,48.30
2019-05-19T11:43:39.127Z,53.95
2019-05-19T11:46:12.451Z,51.98
2019-05-19T11:48:46.463Z,49.65
2019-05-19T11:51:21.267Z,52.27
2019-05-19T11:53:57.684Z,51.40
2019-05-19T11:56:32.542Z,54.25
2019-05-19T11:59:06.691Z,62.55
2019-05-19T12:01:41.057Z,53.68
2019-05-19T12:04:14.996Z,53.73
2019-05-19T12:06:49.116Z,58.80
2019-05-19T12:09:22.217Z,52.67
2019-05-19T12:11:55.284Z,55.15
2019-05-19T12:14:41.230Z,52.03
2019-05-19T12:17:16.021Z,56.92
2019-05-19T12:19:50.119Z,53.10
2019-05-19T12:22:23.035Z,59.45
2019-05-19T12:24:56.203Z,50.60
2019-05-19T12:27:30.796Z,52.08
2019-05-19T12:30:03.159Z,46.73
2019-05-19T12:32:37.848Z,48.58
2019-05-19T12:35:10.534Z,60.63
2019-05-19T12:37:43.152Z,47.55
2019-05-19T12:40:17.296Z,53.80
2019-05-19T12:42:50.195Z,52.27
2019-05-19T12:45:23.308Z,51.60
2019-05-19T12:47:57.926Z,53.35
2019-05-19T12:50:31.204Z,51.77
2019-05-19T12:53:04.673Z,57.70
2019-05-19T12:55:37.368Z,55.73
2019-05-19T12:58:09.801Z,51.63
2019-05-19T13:00:43.758Z,61.55
2019-05-19T13:03:18.452Z,75.25
2019-05-19T13:05:51.079Z,51.68
2019-05-19T13:08:23.467Z,48.48
2019-05-19T13:10:57.349Z,50.45
2019-05-19T13:13:30.078Z,52.78
2019-05-19T13:16:02.919Z,58.42
2019-05-19T13:21:09.186Z,56.60
2019-05-19T13:26:13.975Z,54.38
2019-05-19T13:28:47.011Z,55.55
2019-05-19T13:31:21.362Z,54.98
2019-05-19T13:33:54.351Z,53.58
2019-05-19T13:36:30.992Z,55.35
2019-05-19T13:39:03.962Z,49.77
2019-05-19T13:41:36.970Z,58.83
2019-05-19T13:46:42.618Z,53.58
2019-05-19T13:49:16.604Z,63.63
2019-05-19T13:51:49.650Z,60.73
2019-05-19T13:54:25.305Z,57.62
2019-05-19T13:57:11.234Z,61.02
2019-05-19T13:59:33.044Z,63.95
2019-05-19T14:02:05.661Z,64.45
2019-05-19T14:07:09.994Z,62.15
2019-05-19T14:09:42.669Z,59.13
2019-05-19T14:12:15.862Z,70.97
2019-05-19T14:14:48.382Z,65.05
2019-05-19T14:17:23.428Z,66.60
2019-05-19T14:19:59.348Z,62.03
2019-05-19T14:22:33.180Z,65.12
2019-05-19T14:25:07.369Z,61.42
2019-05-19T14:27:40.152Z,62.33
2019-05-19T14:30:12.901Z,62.35
2019-05-19T14:32:45.735Z,51.83
2019-05-19T14:35:18.178Z,58.65
2019-05-19T14:37:51.338Z,51.60
2019-05-19T14:40:24.039Z,57.27
2019-05-19T14:43:02.870Z,53.38
2019-05-19T14:45:35.299Z,59.15
2019-05-19T14:48:08.765Z,54.98
2019-05-19T14:50:42.310Z,50.67
2019-05-19T14:53:15.129Z,52.93
2019-05-19T14:58:22.766Z,62.62
2019-05-19T15:00:59.297Z,50.95
2019-05-19T15:03:32.019Z,56.15
2019-05-19T15:06:04.479Z,55.45
2019-05-19T15:08:37.701Z,55.48
2019-05-19T15:11:10.370Z,55.45
2019-05-19T15:13:42.947Z,62.23
2019-05-19T15:16:15.937Z,52.23
2019-05-19T15:18:48.673Z,56.23
2019-05-19T15:21:21.055Z,53.38
2019-05-19T15:23:53.892Z,60.67
2019-05-19T15:26:26.247Z,67.08
2019-05-19T15:28:59.259Z,63.65
2019-05-19T15:31:31.877Z,61.40
2019-05-19T15:34:06.349Z,61.23
2019-05-19T15:36:39.168Z,56.73
2019-05-19T15:39:16.378Z,55.78
2019-05-19T15:41:49.172Z,51.83
2019-05-19T15:44:24.983Z,46.60
2019-05-19T15:46:58.093Z,56.45
2019-05-19T15:49:31.114Z,52.65
2019-05-19T15:52:05.767Z,50.17
2019-05-19T15:54:39.136Z,46.40
2019-05-19T15:57:11.756Z,43.98
2019-05-19T15:59:45.010Z,50.98
2019-05-19T16:02:17.496Z,45.85
2019-05-19T16:04:50.583Z,44.75
2019-05-19T16:09:57.152Z,44.30
2019-05-19T16:12:31.195Z,52.48
2019-05-19T16:15:05.333Z,50.00
2019-05-19T16:17:40.805Z,39.35
2019-05-19T16:20:17.158Z,45.15
2019-05-19T16:22:50.965Z,45.00
2019-05-19T16:25:26.872Z,46.30
2019-05-19T16:27:59.791Z,45.80
2019-05-19T16:30:32.637Z,41.77
2019-05-19T16:33:05.666Z,40.70
2019-05-19T16:35:38.957Z,48.85
2019-05-19T16:38:11.317Z,42.25
2019-05-19T16:40:43.847Z,36.93
2019-05-19T16:43:16.347Z,42.55
2019-05-19T16:48:23.468Z,44.75
2019-05-19T16:50:56.309Z,43.33
2019-05-19T16:53:28.690Z,38.40
2019-05-19T16:56:02.135Z,38.42
2019-05-19T16:58:44.930Z,40.35
2019-05-19T17:01:09.706Z,43.65
2019-05-19T17:03:47.717Z,42.90
2019-05-19T17:06:20.323Z,42.78
2019-05-19T17:11:25.850Z,35.03
2019-05-19T17:16:31.727Z,36.80
2019-05-19T17:19:06.719Z,35.63
2019-05-19T17:21:39.674Z,38.08
2019-05-19T17:26:45.459Z,40.55
2019-05-19T17:29:18.708Z,39.78
2019-05-19T17:34:23.537Z,32.98
2019-05-19T17:36:56.289Z,40.30
2019-05-19T17:39:29.007Z,37.10
2019-05-19T17:42:01.989Z,32.53
2019-05-19T17:44:34.701Z,34.53
2019-05-19T17:47:07.541Z,32.55
2019-05-19T17:49:40.306Z,33.55
2019-05-19T17:52:13.459Z,37.65
2019-05-19T17:54:46.656Z,33.58
2019-05-19T17:57:19.743Z,40.20
2019-05-19T17:59:54.131Z,31.37
2019-05-19T18:02:27.401Z,39.20
2019-05-19T18:05:00.419Z,36.20
2019-05-19T18:07:34.294Z,36.00
2019-05-19T18:10:08.595Z,38.53
2019-05-19T18:12:41.499Z,35.43
2019-05-19T18:15:14.499Z,31.10
2019-05-19T18:17:47.996Z,30.55
2019-05-19T18:20:24.067Z,31.75
2019-05-19T18:22:55.868Z,33.58
2019-05-19T18:28:00.583Z,30.95
2019-05-19T18:30:33.296Z,35.68
2019-05-19T18:33:06.427Z,35.10
2019-05-19T18:35:39.005Z,38.48
2019-05-19T18:38:11.827Z,30.88
2019-05-19T18:40:44.531Z,35.70
2019-05-19T18:43:17.413Z,35.48
2019-05-19T18:48:23.432Z,34.88
2019-05-19T18:50:56.256Z,34.60
2019-05-19T18:53:28.817Z,33.98
2019-05-19T18:56:01.114Z,34.10
2019-05-19T18:58:33.822Z,42.95
2019-05-19T19:03:37.549Z,50.35
2019-05-19T19:08:43.107Z,38.58
2019-05-19T19:11:17.026Z,40.58
2019-05-19T19:13:50.113Z,42.62
2019-05-19T19:16:22.563Z,44.35
2019-05-19T19:18:56.228Z,40.38
2019-05-19T19:21:28.435Z,36.93
2019-05-19T19:26:33.119Z,36.60
2019-05-19T19:29:06.021Z,34.85
2019-05-19T19:31:48.202Z,37.73
2019-05-19T19:34:14.863Z,39.35
2019-05-19T19:36:47.658Z,38.80
2019-05-19T19:39:20.999Z,31.30
2019-05-19T19:41:53.636Z,34.15
2019-05-19T19:46:57.830Z,31.68
2019-05-19T19:49:30.953Z,35.92
2019-05-19T19:52:03.526Z,33.85
2019-05-19T19:54:36.386Z,33.58
2019-05-19T19:57:08.962Z,38.08
2019-05-19T19:59:42.014Z,35.25
2019-05-19T20:04:45.930Z,36.75
2019-05-19T20:07:19.061Z,34.70
2019-05-19T20:09:51.829Z,30.80
2019-05-19T20:12:24.369Z,34.40
2019-05-19T20:15:06.388Z,40.93
2019-05-19T20:17:38.729Z,30.35
2019-05-19T20:20:11.769Z,34.27
2019-05-19T20:22:44.210Z,34.40
2019-05-19T20:25:18.207Z,37.13
2019-05-19T20:27:51.191Z,35.05
2019-05-19T20:32:57.825Z,34.53
2019-05-19T20:35:30.815Z,34.70
2019-05-19T20:38:03.413Z,32.20
2019-05-19T20:43:07.692Z,36.90
2019-05-19T20:45:40.638Z,33.28
2019-05-19T20:48:14.538Z,31.95
2019-05-19T20:50:47.797Z,30.62
2019-05-19T20:53:20.991Z,28.25
2019-05-19T20:55:54.549Z,29.20
2019-05-19T20:58:27.504Z,42.55
2019-05-19T21:01:00.676Z,32.33
2019-05-19T21:03:33.922Z,33.63
2019-05-19T21:06:06.614Z,36.63
2019-05-19T21:11:11.292Z,36.35
2019-05-19T21:13:47.907Z,29.23
2019-05-19T21:16:22.314Z,29.40
2019-05-19T21:19:12.592Z,28.15
2019-05-19T21:21:46.305Z,31.07
2019-05-19T21:24:18.836Z,34.70
2019-05-19T21:29:24.121Z,28.40
2019-05-19T21:31:56.995Z,34.00
2019-05-19T21:34:29.837Z,34.60
2019-05-19T21:37:02.773Z,34.90
2019-05-19T21:42:06.905Z,28.55
2019-05-19T21:44:39.326Z,29.40
2019-05-19T21:49:43.256Z,37.13
2019-05-19T21:54:47.292Z,24.30
2019-05-19T21:59:52.148Z,34.03
2019-05-19T22:02:24.683Z,26.93
2019-05-19T22:04:56.974Z,29.55
2019-05-19T22:10:09.256Z,29.85
2019-05-19T22:12:49.303Z,31.57
2019-05-19T22:15:22.050Z,34.95
2019-05-19T22:17:54.928Z,34.55
2019-05-19T22:20:27.527Z,33.48
2019-05-19T22:25:33.026Z,30.45
2019-05-19T22:28:06.426Z,32.83
2019-05-19T22:30:39.721Z,38.20
2019-05-19T22:33:12.577Z,34.83
2019-05-19T22:35:45.402Z,34.25
2019-05-19T22:38:18.063Z,38.35
2019-05-19T22:43:22.778Z,37.58
2019-05-19T22:45:55.617Z,36.23
2019-05-19T22:48:28.552Z,37.93
2019-05-19T22:51:01.136Z,36.48
2019-05-19T22:53:34.518Z,43.17
2019-05-19T22:56:07.546Z,33.88
2019-05-19T22:58:41.860Z,41.95
2019-05-19T23:01:19.072Z,42.08
2019-05-19T23:03:52.107Z,37.58
2019-05-19T23:06:25.064Z,35.20
2019-05-19T23:08:57.669Z,42.03
2019-05-19T23:11:30.707Z,49.83
2019-05-19T23:16:34.870Z,41.37
2019-05-19T23:19:07.277Z,47.20
2019-05-19T23:21:40.083Z,39.88
2019-05-19T23:24:13.378Z,40.48
2019-05-19T23:26:47.272Z,41.98
2019-05-19T23:29:19.871Z,38.90
2019-05-19T23:34:25.301Z,33.40
2019-05-19T23:36:58.482Z,36.00
2019-05-19T23:42:02.509Z,32.45
2019-05-19T23:44:35.134Z,34.03
2019-05-19T23:47:08.383Z,39.53
2019-05-19T23:49:41.142Z,35.45
2019-05-19T23:52:14.113Z,32.88
2019-05-19T23:54:46.939Z,29.27
2019-05-19T23:57:19.558Z,37.80
2019-05-19T23:59:52.106Z,33.13
